createdAt,value
2018-10-05T00:02:19.489Z,5.39
2018-10-05T00:04:46.683Z,5.29
2018-10-05T00:07:13.880Z,5.29
2018-10-05T00:09:41.096Z,5.00
2018-10-05T00:12:08.257Z,5.13
2018-10-05T00:14:35.416Z,4.99
2018-10-05T00:17:02.600Z,5.04
2018-10-05T00:19:29.815Z,4.83
2018-10-05T00:21:56.948Z,4.69
2018-10-05T00:24:24.200Z,4.88
2018-10-05T00:26:51.421Z,4.74
2018-10-05T00:29:18.556Z,4.79
2018-10-05T00:31:45.720Z,4.66
2018-10-05T00:34:12.900Z,4.75
2018-10-05T00:36:40.084Z,4.78
2018-10-05T00:39:08.427Z,4.57
2018-10-05T00:41:35.601Z,4.80
2018-10-05T00:44:02.856Z,4.74
2018-10-05T00:46:30.213Z,4.48
2018-10-05T00:48:57.381Z,4.39
2018-10-05T00:51:24.534Z,4.01
2018-10-05T00:53:51.657Z,3.68
2018-10-05T00:56:18.908Z,3.95
2018-10-05T00:58:46.111Z,4.28
2018-10-05T01:01:13.464Z,4.47
2018-10-05T01:03:40.686Z,4.40
2018-10-05T01:06:07.890Z,4.54
2018-10-05T01:08:35.281Z,4.65
2018-10-05T01:11:02.505Z,4.43
2018-10-05T01:13:29.756Z,4.39
2018-10-05T01:15:56.966Z,4.47
2018-10-05T01:18:24.124Z,4.38
2018-10-05T01:20:51.255Z,4.11
2018-10-05T01:23:18.551Z,4.35
2018-10-05T01:25:45.761Z,4.21
2018-10-05T01:28:12.973Z,4.25
2018-10-05T01:30:40.205Z,4.26
2018-10-05T01:33:07.423Z,4.35
2018-10-05T01:35:34.584Z,4.27
2018-10-05T01:38:01.785Z,4.29
2018-10-05T01:40:29.028Z,4.24
2018-10-05T01:42:56.193Z,4.39
2018-10-05T01:45:23.365Z,4.21
2018-10-05T01:47:50.582Z,4.24
2018-10-05T01:50:17.749Z,4.25
2018-10-05T01:52:44.921Z,4.15
2018-10-05T01:55:12.090Z,4.08
2018-10-05T01:57:39.265Z,4.00
2018-10-05T02:00:06.448Z,3.74
2018-10-05T02:02:33.611Z,3.51
2018-10-05T02:05:00.812Z,3.55
2018-10-05T02:07:28.102Z,3.40
2018-10-05T02:09:55.267Z,3.63
2018-10-05T02:12:22.424Z,3.73
2018-10-05T02:14:49.595Z,3.88
2018-10-05T02:17:16.761Z,3.95
2018-10-05T02:19:43.941Z,3.95
2018-10-05T02:22:11.064Z,3.90
2018-10-05T02:24:38.210Z,3.83
2018-10-05T02:27:05.356Z,3.99
2018-10-05T02:29:32.560Z,3.86
2018-10-05T02:31:59.697Z,3.82
2018-10-05T02:34:26.936Z,3.97
2018-10-05T02:36:54.124Z,3.80
2018-10-05T02:39:21.288Z,3.71
2018-10-05T02:41:48.450Z,3.73
2018-10-05T02:44:15.569Z,3.54
2018-10-05T02:46:42.728Z,3.47
2018-10-05T02:49:09.909Z,3.49
2018-10-05T02:51:37.124Z,3.42
2018-10-05T02:54:04.292Z,3.42
2018-10-05T02:56:31.439Z,3.55
2018-10-05T02:58:58.616Z,3.46
2018-10-05T03:01:37.335Z,3.20
2018-10-05T03:04:04.520Z,3.14
2018-10-05T03:06:31.681Z,3.13
2018-10-05T03:08:58.879Z,3.17
2018-10-05T03:11:26.115Z,3.21
2018-10-05T03:13:53.282Z,3.04
2018-10-05T03:16:20.563Z,3.02
2018-10-05T03:18:47.803Z,3.16
2018-10-05T03:21:15.034Z,3.15
2018-10-05T03:23:42.208Z,3.26
2018-10-05T03:26:09.446Z,2.60
2018-10-05T03:28:36.618Z,2.77
2018-10-05T03:31:03.785Z,2.81
2018-10-05T03:33:30.953Z,2.89
2018-10-05T03:35:58.183Z,2.85
2018-10-05T03:38:25.352Z,2.90
2018-10-05T03:40:52.534Z,3.05
2018-10-05T03:43:19.744Z,3.20
2018-10-05T03:45:46.960Z,3.01
2018-10-05T03:48:14.128Z,3.06
2018-10-05T03:50:41.292Z,2.86
2018-10-05T03:53:08.472Z,3.03
2018-10-05T03:55:35.620Z,2.98
2018-10-05T03:58:02.980Z,2.86
2018-10-05T04:00:30.187Z,2.89
2018-10-05T04:02:57.394Z,2.81
2018-10-05T04:05:24.565Z,2.93
2018-10-05T04:07:51.803Z,2.74
2018-10-05T04:10:19.027Z,2.74
2018-10-05T04:12:46.203Z,2.84
2018-10-05T04:15:13.346Z,2.77
2018-10-05T04:17:40.529Z,2.76
2018-10-05T04:20:07.724Z,2.81
2018-10-05T04:22:34.888Z,2.47
2018-10-05T04:25:02.122Z,2.45
2018-10-05T04:27:29.280Z,2.50
2018-10-05T04:29:56.707Z,2.60
2018-10-05T04:32:24.002Z,2.61
2018-10-05T04:34:51.195Z,2.70
2018-10-05T04:37:18.403Z,2.66
2018-10-05T04:39:45.612Z,2.81
2018-10-05T04:42:12.757Z,2.89
2018-10-05T04:44:40.037Z,2.96
2018-10-05T04:47:07.217Z,2.76
2018-10-05T04:49:34.425Z,2.85
2018-10-05T04:52:01.957Z,2.96
2018-10-05T04:54:29.152Z,2.88
2018-10-05T04:56:56.366Z,2.85
2018-10-05T04:59:23.591Z,2.78
2018-10-05T05:01:50.822Z,2.41
2018-10-05T05:04:18.070Z,2.32
2018-10-05T05:06:45.293Z,2.29
2018-10-05T05:09:12.448Z,2.31
2018-10-05T05:11:39.612Z,2.24
2018-10-05T05:14:06.833Z,2.13
2018-10-05T05:16:34.045Z,2.17
2018-10-05T05:19:01.246Z,2.14
2018-10-05T05:21:28.697Z,2.23
2018-10-05T05:23:56.340Z,2.15
2018-10-05T05:26:23.547Z,2.12
2018-10-05T05:28:50.731Z,2.22
2018-10-05T05:31:17.974Z,2.37
2018-10-05T05:33:45.246Z,2.30
2018-10-05T05:36:12.435Z,2.56
2018-10-05T05:38:39.595Z,2.66
2018-10-05T05:41:06.816Z,2.44
2018-10-05T05:43:34.010Z,2.37
2018-10-05T05:46:01.150Z,2.44
2018-10-05T05:48:28.509Z,2.57
2018-10-05T05:50:55.740Z,2.25
2018-10-05T05:53:22.935Z,2.42
2018-10-05T05:55:50.144Z,2.50
2018-10-05T05:58:17.376Z,2.49
2018-10-05T06:00:44.539Z,2.36
2018-10-05T06:03:11.732Z,2.47
2018-10-05T06:05:38.952Z,2.46
2018-10-05T06:08:06.171Z,2.60
2018-10-05T06:13:07.320Z,2.79
2018-10-05T06:15:34.508Z,2.81
2018-10-05T06:18:01.703Z,2.86
2018-10-05T06:20:28.879Z,2.96
2018-10-05T06:22:56.112Z,3.04
2018-10-05T06:25:23.308Z,3.13
2018-10-05T06:27:50.520Z,3.07
2018-10-05T06:30:17.791Z,3.07
2018-10-05T06:32:45.035Z,3.03
2018-10-05T06:35:12.189Z,3.05
2018-10-05T06:37:39.411Z,3.04
2018-10-05T06:40:06.700Z,3.08
2018-10-05T06:42:34.035Z,3.21
2018-10-05T06:45:01.200Z,3.30
2018-10-05T06:47:28.316Z,3.57
2018-10-05T06:49:55.562Z,3.71
2018-10-05T06:52:22.751Z,3.70
2018-10-05T06:54:49.915Z,3.91
2018-10-05T06:57:17.374Z,4.13
2018-10-05T06:59:44.537Z,4.43
2018-10-05T07:02:11.693Z,4.61
2018-10-05T07:04:38.900Z,4.89
2018-10-05T07:07:06.092Z,4.94
2018-10-05T07:09:33.364Z,5.17
2018-10-05T07:12:00.549Z,5.30
2018-10-05T07:14:27.716Z,5.54
2018-10-05T07:16:54.936Z,5.76
2018-10-05T07:19:22.044Z,6.03
2018-10-05T07:21:56.298Z,6.18
2018-10-05T07:24:23.531Z,6.44
2018-10-05T07:26:50.740Z,6.48
2018-10-05T07:29:17.906Z,6.73
2018-10-05T07:31:45.132Z,6.68
2018-10-05T07:34:12.436Z,6.71
2018-10-05T07:36:39.564Z,6.79
2018-10-05T07:39:07.452Z,7.25
2018-10-05T07:41:34.588Z,7.35
2018-10-05T07:44:01.777Z,7.46
2018-10-05T07:46:28.983Z,7.93
2018-10-05T07:48:56.127Z,7.93
2018-10-05T07:51:23.344Z,8.07
2018-10-05T07:53:50.584Z,8.32
2018-10-05T07:56:17.751Z,8.44
2018-10-05T07:58:44.960Z,8.61
2018-10-05T08:01:12.128Z,8.94
2018-10-05T08:03:39.271Z,9.07
2018-10-05T08:06:06.787Z,9.02
2018-10-05T08:08:34.045Z,9.33
2018-10-05T08:11:01.211Z,9.36
2018-10-05T08:13:28.405Z,9.25
2018-10-05T08:15:55.590Z,9.24
2018-10-05T08:18:22.738Z,9.46
2018-10-05T08:20:50.038Z,9.52
2018-10-05T08:23:17.180Z,9.73
2018-10-05T08:25:44.399Z,10.06
2018-10-05T08:28:11.513Z,10.33
2018-10-05T08:30:38.691Z,10.46
2018-10-05T08:33:05.933Z,10.46
2018-10-05T08:35:33.134Z,10.39
2018-10-05T08:38:00.288Z,10.25
2018-10-05T08:40:27.510Z,10.47
2018-10-05T08:42:54.695Z,10.53
2018-10-05T08:45:21.955Z,10.76
2018-10-05T08:47:49.065Z,10.94
2018-10-05T08:50:16.184Z,10.93
2018-10-05T08:52:43.376Z,10.95
2018-10-05T08:55:10.724Z,11.16
2018-10-05T08:57:37.965Z,11.04
2018-10-05T09:00:05.440Z,11.19
2018-10-05T09:02:32.558Z,11.37
2018-10-05T09:04:59.707Z,11.41
2018-10-05T09:07:26.865Z,11.75
2018-10-05T09:09:54.076Z,11.90
2018-10-05T09:12:21.276Z,11.91
2018-10-05T09:14:48.476Z,12.10
2018-10-05T09:17:15.668Z,12.24
2018-10-05T09:19:42.821Z,12.28
2018-10-05T09:22:09.988Z,12.49
2018-10-05T09:24:37.208Z,12.57
2018-10-05T09:27:04.389Z,12.68
2018-10-05T09:29:31.612Z,12.87
2018-10-05T09:31:58.944Z,13.03
2018-10-05T09:34:26.160Z,13.19
2018-10-05T09:36:53.367Z,13.36
2018-10-05T09:39:20.528Z,13.50
2018-10-05T09:41:47.671Z,13.59
2018-10-05T09:44:14.930Z,13.73
2018-10-05T09:46:42.133Z,13.79
2018-10-05T09:49:09.322Z,13.84
2018-10-05T09:51:36.500Z,13.77
2018-10-05T09:54:03.701Z,14.02
2018-10-05T09:56:30.849Z,14.14
2018-10-05T09:58:58.000Z,14.12
2018-10-05T10:01:31.005Z,14.35
2018-10-05T10:03:58.153Z,14.53
2018-10-05T10:06:25.360Z,14.72
2018-10-05T10:08:52.523Z,14.95
2018-10-05T10:13:53.770Z,14.95
2018-10-05T10:16:20.967Z,14.88
2018-10-05T10:18:48.109Z,15.11
2018-10-05T10:21:15.285Z,15.26
2018-10-05T10:23:42.472Z,15.25
2018-10-05T10:26:09.736Z,15.32
2018-10-05T10:28:36.975Z,15.58
2018-10-05T10:31:04.104Z,15.61
2018-10-05T10:33:31.403Z,15.64
2018-10-05T10:35:58.601Z,15.91
2018-10-05T10:38:25.765Z,15.90
2018-10-05T10:40:53.005Z,16.13
2018-10-05T10:43:20.165Z,16.12
2018-10-05T10:45:47.405Z,16.32
2018-10-05T10:48:14.618Z,16.66
2018-10-05T10:50:41.839Z,16.62
2018-10-05T10:53:08.993Z,16.48
2018-10-05T10:55:36.208Z,16.68
2018-10-05T10:58:03.432Z,16.69
2018-10-05T11:00:30.680Z,16.48
2018-10-05T11:02:57.896Z,16.52
2018-10-05T11:05:25.104Z,16.67
2018-10-05T11:07:52.438Z,16.55
2018-10-05T11:10:19.647Z,16.49
2018-10-05T11:12:46.851Z,17.01
2018-10-05T11:15:14.025Z,17.11
2018-10-05T11:17:41.205Z,17.35
2018-10-05T11:20:08.412Z,17.13
2018-10-05T11:22:35.556Z,17.21
2018-10-05T11:25:02.872Z,17.43
2018-10-05T11:27:30.047Z,17.86
2018-10-05T11:29:57.217Z,18.22
2018-10-05T11:32:24.388Z,18.65
2018-10-05T11:34:51.648Z,18.18
2018-10-05T11:37:18.781Z,18.87
2018-10-05T11:39:46.004Z,18.85
2018-10-05T11:42:13.164Z,19.00
2018-10-05T11:44:40.356Z,19.49
2018-10-05T11:47:07.564Z,19.31
2018-10-05T11:49:34.736Z,19.27
2018-10-05T11:52:01.997Z,19.41
2018-10-05T11:54:29.223Z,19.64
2018-10-05T11:56:56.436Z,19.66
2018-10-05T11:59:23.611Z,20.35
2018-10-05T12:01:50.880Z,20.99
2018-10-05T12:04:18.093Z,21.11
2018-10-05T12:06:45.382Z,21.33
2018-10-05T12:09:12.592Z,20.85
2018-10-05T12:11:39.860Z,21.50
2018-10-05T12:14:07.107Z,21.98
2018-10-05T12:16:34.324Z,21.24
2018-10-05T12:19:01.521Z,21.05
2018-10-05T12:21:28.982Z,21.73
2018-10-05T12:23:56.252Z,21.04
2018-10-05T12:26:23.545Z,21.64
2018-10-05T12:28:50.850Z,22.11
2018-10-05T12:31:18.119Z,22.00
2018-10-05T12:33:45.502Z,22.20
2018-10-05T12:36:12.781Z,21.91
2018-10-05T12:38:40.041Z,22.32
2018-10-05T12:41:07.260Z,23.00
2018-10-05T12:43:34.488Z,23.45
2018-10-05T12:46:01.866Z,23.29
2018-10-05T12:48:29.050Z,22.90
2018-10-05T12:50:56.267Z,23.35
2018-10-05T12:53:23.513Z,23.81
2018-10-05T12:55:50.776Z,23.99
2018-10-05T12:58:18.065Z,23.05
2018-10-05T13:00:45.272Z,23.55
2018-10-05T13:03:12.485Z,22.94
2018-10-05T13:05:39.687Z,23.43
2018-10-05T13:08:06.905Z,23.31
2018-10-05T13:10:34.189Z,23.69
2018-10-05T13:13:01.453Z,23.80
2018-10-05T13:15:28.709Z,23.52
2018-10-05T13:17:55.973Z,23.81
2018-10-05T13:20:23.146Z,24.28
2018-10-05T13:22:50.302Z,23.48
2018-10-05T13:25:17.500Z,23.34
2018-10-05T13:27:44.767Z,24.09
2018-10-05T13:30:12.001Z,23.94
2018-10-05T13:32:39.201Z,23.68
2018-10-05T13:35:06.434Z,22.74
2018-10-05T13:37:34.048Z,23.44
2018-10-05T13:40:01.226Z,24.01
2018-10-05T13:42:28.406Z,23.72
2018-10-05T13:44:55.612Z,23.76
2018-10-05T13:47:22.802Z,24.34
2018-10-05T13:49:49.972Z,23.22
2018-10-05T13:52:17.143Z,23.99
2018-10-05T13:54:44.346Z,24.38
2018-10-05T13:57:11.530Z,24.31
2018-10-05T13:59:38.688Z,24.29
2018-10-05T14:02:05.990Z,24.86
2018-10-05T14:04:33.101Z,24.53
2018-10-05T14:07:00.351Z,24.29
2018-10-05T14:09:27.558Z,24.37
2018-10-05T14:11:54.832Z,24.32
2018-10-05T14:14:22.078Z,24.44
2018-10-05T14:16:49.287Z,23.78
2018-10-05T14:19:16.540Z,23.51
2018-10-05T14:21:44.436Z,23.74
2018-10-05T14:24:11.668Z,23.97
2018-10-05T14:26:38.854Z,23.76
2018-10-05T14:29:06.159Z,24.26
2018-10-05T14:31:33.417Z,25.08
2018-10-05T14:34:00.609Z,23.76
2018-10-05T14:36:27.953Z,23.78
2018-10-05T14:38:55.193Z,23.91
2018-10-05T14:41:22.424Z,23.77
2018-10-05T14:43:49.658Z,24.62
2018-10-05T14:46:17.036Z,23.80
2018-10-05T14:48:44.296Z,23.88
2018-10-05T14:51:11.580Z,23.94
2018-10-05T14:53:39.155Z,23.64
2018-10-05T14:56:06.445Z,23.95
2018-10-05T14:58:33.730Z,23.10
2018-10-05T15:01:01.034Z,23.40
2018-10-05T15:03:28.298Z,23.55
2018-10-05T15:05:55.476Z,23.58
2018-10-05T15:08:22.740Z,22.91
2018-10-05T15:10:49.989Z,22.73
2018-10-05T15:13:17.294Z,22.64
2018-10-05T15:15:44.413Z,22.34
2018-10-05T15:18:11.691Z,22.30
2018-10-05T15:20:38.953Z,21.45
2018-10-05T15:23:06.217Z,21.18
2018-10-05T15:25:33.504Z,21.14
2018-10-05T15:28:00.784Z,21.21
2018-10-05T15:30:28.103Z,20.73
2018-10-05T15:32:55.404Z,20.59
2018-10-05T15:35:22.691Z,20.56
2018-10-05T15:37:49.862Z,20.64
2018-10-05T15:40:17.234Z,20.42
2018-10-05T15:42:44.519Z,20.25
2018-10-05T15:45:11.755Z,20.06
2018-10-05T15:47:38.947Z,19.89
2018-10-05T15:50:06.230Z,19.88
2018-10-05T15:52:33.476Z,19.78
2018-10-05T15:55:00.770Z,19.88
2018-10-05T15:57:28.101Z,20.00
2018-10-05T15:59:55.327Z,19.82
2018-10-05T16:04:49.144Z,19.84
2018-10-05T16:07:16.366Z,19.62
2018-10-05T16:09:43.532Z,19.50
2018-10-05T16:12:10.755Z,19.37
2018-10-05T16:14:38.012Z,19.19
2018-10-05T16:17:05.520Z,19.01
2018-10-05T16:19:32.760Z,18.90
2018-10-05T16:21:59.956Z,18.78
2018-10-05T16:24:32.435Z,18.53
2018-10-05T16:26:59.645Z,18.30
2018-10-05T16:29:26.863Z,17.83
2018-10-05T16:31:54.148Z,17.35
2018-10-05T16:34:21.320Z,17.20
2018-10-05T16:36:48.556Z,17.13
2018-10-05T16:39:15.730Z,16.87
2018-10-05T16:41:42.944Z,16.75
2018-10-05T16:44:10.194Z,16.71
2018-10-05T16:46:38.355Z,16.47
2018-10-05T16:49:07.011Z,16.23
2018-10-05T16:51:34.228Z,16.11
2018-10-05T16:54:01.428Z,15.69
2018-10-05T16:56:28.552Z,15.64
2018-10-05T16:58:55.730Z,15.64
2018-10-05T17:01:22.942Z,15.37
2018-10-05T17:03:50.210Z,15.10
2018-10-05T17:06:17.391Z,15.10
2018-10-05T17:08:46.955Z,15.16
2018-10-05T17:11:14.206Z,15.13
2018-10-05T17:13:41.376Z,14.89
2018-10-05T17:16:08.574Z,14.51
2018-10-05T17:18:35.736Z,14.39
2018-10-05T17:21:03.009Z,14.48
2018-10-05T17:23:30.244Z,14.55
2018-10-05T17:25:57.692Z,14.64
2018-10-05T17:28:24.928Z,14.77
2018-10-05T17:30:52.168Z,14.69
2018-10-05T17:33:20.056Z,14.62
2018-10-05T17:35:47.264Z,14.64
2018-10-05T17:38:14.512Z,14.58
2018-10-05T17:40:41.705Z,14.51
2018-10-05T17:43:08.868Z,14.45
2018-10-05T17:45:36.109Z,14.33
2018-10-05T17:48:03.268Z,14.21
2018-10-05T17:50:30.518Z,14.17
2018-10-05T17:52:57.733Z,14.03
2018-10-05T17:55:25.244Z,14.00
2018-10-05T17:57:52.450Z,13.87
2018-10-05T18:00:19.661Z,13.79
2018-10-05T18:02:47.519Z,13.58
2018-10-05T18:05:14.740Z,13.50
2018-10-05T18:07:42.023Z,13.52
2018-10-05T18:10:09.277Z,13.53
2018-10-05T18:12:36.556Z,13.47
2018-10-05T18:15:04.251Z,13.42
2018-10-05T18:17:33.029Z,13.30
2018-10-05T18:20:00.828Z,13.17
2018-10-05T18:22:28.668Z,13.18
2018-10-05T18:24:56.542Z,13.09
2018-10-05T18:27:24.818Z,13.06
2018-10-05T18:29:54.081Z,13.01
2018-10-05T18:32:21.910Z,12.91
2018-10-05T18:34:49.822Z,12.83
2018-10-05T18:37:17.687Z,12.76
2018-10-05T18:39:45.535Z,12.80
2018-10-05T18:42:13.333Z,12.68
2018-10-05T18:44:40.716Z,12.73
2018-10-05T18:47:10.345Z,12.72
2018-10-05T18:49:37.854Z,12.55
2018-10-05T18:52:05.606Z,12.49
2018-10-05T18:54:32.944Z,12.39
2018-10-05T18:57:11.975Z,12.17
2018-10-05T18:59:39.434Z,12.11
2018-10-05T19:02:07.133Z,12.06
2018-10-05T19:04:34.854Z,11.95
2018-10-05T19:07:02.503Z,11.88
2018-10-05T19:09:29.823Z,11.83
2018-10-05T19:11:57.278Z,11.69
2018-10-05T19:14:24.703Z,11.90
2018-10-05T19:16:52.238Z,11.83
2018-10-05T19:19:19.731Z,11.88
2018-10-05T19:21:47.515Z,11.74
2018-10-05T19:24:14.968Z,11.51
2018-10-05T19:26:42.522Z,11.45
2018-10-05T19:29:10.599Z,11.48
2018-10-05T19:31:37.952Z,11.30
2018-10-05T19:34:05.514Z,11.19
2018-10-05T19:36:32.828Z,10.74
2018-10-05T19:39:00.237Z,10.72
2018-10-05T19:41:27.783Z,10.75
2018-10-05T19:43:56.026Z,10.79
2018-10-05T19:46:23.438Z,10.65
2018-10-05T19:48:50.795Z,10.52
2018-10-05T19:51:18.127Z,10.32
2018-10-05T19:53:45.622Z,10.31
2018-10-05T19:56:13.878Z,10.33
2018-10-05T19:58:41.452Z,10.24
2018-10-05T20:01:08.857Z,10.07
2018-10-05T20:03:36.235Z,9.36
2018-10-05T20:06:03.621Z,9.69
2018-10-05T20:08:31.018Z,9.68
2018-10-05T20:10:59.131Z,9.21
2018-10-05T20:13:26.497Z,9.39
2018-10-05T20:15:53.818Z,9.54
2018-10-05T20:18:21.298Z,9.56
2018-10-05T20:20:48.754Z,9.50
2018-10-05T20:23:16.181Z,9.35
2018-10-05T20:25:43.820Z,9.45
2018-10-05T20:28:11.307Z,9.30
2018-10-05T20:30:39.510Z,9.37
2018-10-05T20:33:06.898Z,9.50
2018-10-05T20:35:34.259Z,9.40
2018-10-05T20:38:01.632Z,9.34
2018-10-05T20:40:29.172Z,9.17
2018-10-05T20:42:56.668Z,9.35
2018-10-05T20:45:24.123Z,9.27
2018-10-05T20:47:51.554Z,9.17
2018-10-05T20:50:18.858Z,9.09
2018-10-05T20:52:46.221Z,9.16
2018-10-05T20:55:13.754Z,9.10
2018-10-05T20:57:41.190Z,8.96
2018-10-05T21:00:08.793Z,8.08
2018-10-05T21:02:36.201Z,8.87
2018-10-05T21:05:04.001Z,8.75
2018-10-05T21:07:31.427Z,8.72
2018-10-05T21:09:59.670Z,8.62
2018-10-05T21:12:26.938Z,8.59
2018-10-05T21:14:54.257Z,8.68
2018-10-05T21:17:21.506Z,8.52
2018-10-05T21:19:49.029Z,8.61
2018-10-05T21:22:16.439Z,8.71
2018-10-05T21:24:43.978Z,8.67
2018-10-05T21:27:11.390Z,8.57
2018-10-05T21:29:39.007Z,8.53
2018-10-05T21:32:06.643Z,8.33
2018-10-05T21:34:34.061Z,8.11
2018-10-05T21:37:01.366Z,8.19
2018-10-05T21:39:28.611Z,8.24
2018-10-05T21:41:55.897Z,8.27
2018-10-05T21:44:23.444Z,8.39
2018-10-05T21:46:50.750Z,8.25
2018-10-05T21:49:18.075Z,8.17
2018-10-05T21:51:45.486Z,8.21
2018-10-05T21:54:12.866Z,8.06
2018-10-05T21:56:40.373Z,8.02
2018-10-05T21:59:08.675Z,8.09
2018-10-05T22:01:36.124Z,8.07
2018-10-05T22:04:03.465Z,7.92
2018-10-05T22:06:30.742Z,7.76
2018-10-05T22:08:58.038Z,7.65
2018-10-05T22:11:25.393Z,7.58
2018-10-05T22:13:52.922Z,7.71
2018-10-05T22:16:20.219Z,7.65
2018-10-05T22:18:47.505Z,7.46
2018-10-05T22:21:15.073Z,7.42
2018-10-05T22:23:42.654Z,7.26
2018-10-05T22:26:10.027Z,7.50
2018-10-05T22:28:37.680Z,7.63
2018-10-05T22:31:05.029Z,7.55
2018-10-05T22:33:32.410Z,7.58
2018-10-05T22:35:59.777Z,7.63
2018-10-05T22:38:27.080Z,7.71
2018-10-05T22:40:54.465Z,7.66
2018-10-05T22:43:21.798Z,7.54
2018-10-05T22:45:49.179Z,7.66
2018-10-05T22:48:16.519Z,7.56
2018-10-05T22:50:43.794Z,7.53
2018-10-05T22:53:11.123Z,7.38
2018-10-05T22:55:38.476Z,7.46
2018-10-05T22:58:05.836Z,7.26
2018-10-05T23:00:33.154Z,7.33
2018-10-05T23:03:00.458Z,7.26
2018-10-05T23:05:27.715Z,7.25
2018-10-05T23:07:55.119Z,7.25
2018-10-05T23:10:22.476Z,7.23
2018-10-05T23:12:49.855Z,7.23
2018-10-05T23:15:17.186Z,7.20
2018-10-05T23:17:44.517Z,7.23
2018-10-05T23:20:11.799Z,7.17
2018-10-05T23:22:39.125Z,7.20
2018-10-05T23:25:06.447Z,7.14
2018-10-05T23:27:33.850Z,7.19
2018-10-05T23:30:01.201Z,7.17
2018-10-05T23:32:28.545Z,6.96
2018-10-05T23:34:55.865Z,7.03
2018-10-05T23:37:23.218Z,7.00
2018-10-05T23:39:50.585Z,7.07
2018-10-05T23:42:17.995Z,7.05
2018-10-05T23:44:45.311Z,6.97
2018-10-05T23:47:12.637Z,6.62
2018-10-05T23:49:39.957Z,6.74
2018-10-05T23:52:32.972Z,6.72
2018-10-05T23:55:00.335Z,6.72
2018-10-05T23:57:27.701Z,6.61
2018-10-05T23:59:55.095Z,6.71
